Iowa Falls, Iowa
Current Conditions -  °F | °C
As of 11:55 PM on Tuesday 21 Oct 2014 (Local Time) from KIFA Reporting Station
Clear Clear  
Wind Chill: 38°   Ceiling: Unl
Heat Index: 42°   Visibility: 10mi
Dew Point: 37°   Wind: 7mph
Humidity: 83%   Direction: 120°ESE
Pressure: 30.2"   Gusts: NA
Location:  42.52°N, 93.26°W
Report Text: KIFA 220455Z AUTO 12006KT 10SM CLR 06/03 A3020 RMK AO2 T00570030
Loading
Personal Weather Stations






























Interactive Weather Map New forecast layout! Learn more

10-Day Weather Forecast

Advertisements
Track Severe Weather on mobile